Time;durP1;ratioP1;P1;durP2;ratioP2;P2;SDS_P1;SDS_P2;PMS_P1;PMS_P2;Temp;Humidity;BMP_temperature;BMP_pressure;BME280_temperature;BME280_humidity;BME280_pressure;Samples;Min_cycle;Max_cycle;Signal;HPM_P1;HPM_P2
2022/03/15 00:00:37;;;;;;;;;10.00;8.25;;;;;;;;5009885;28;45373;-63
2022/03/15 00:03:03;;;;;;;;;11.75;8.00;;;;;;;;5010864;28;45378;-63
2022/03/15 00:05:28;;;;;;;;;11.00;8.75;;;;;;;;5008022;28;45739;-64
2022/03/15 00:07:54;;;;;;;;;7.00;7.00;;;;;;;;5010582;28;46414;-63
2022/03/15 00:10:19;;;;;;;;;7.75;6.75;;;;;;;;5010909;28;45528;-64
2022/03/15 00:12:45;;;;;;;;;10.75;9.00;;;;;;;;5009400;28;45363;-63
2022/03/15 00:15:11;;;;;;;;;10.00;8.50;;;;;;;;5010624;28;45434;-64
2022/03/15 00:17:36;;;;;;;;;8.75;7.75;;;;;;;;5008947;28;45586;-64
2022/03/15 00:20:03;;;;;;;;;9.00;9.00;;;;;;;;5010015;28;45541;-62
2022/03/15 00:22:30;;;;;;;;;16.75;13.00;;;;;;;;5010754;28;45559;-63
2022/03/15 00:24:55;;;;;;;;;11.00;11.00;;;;;;;;5010087;28;45382;-63
2022/03/15 00:27:21;;;;;;;;;12.50;11.50;;;;;;;;5011178;28;45473;-63
2022/03/15 00:29:46;;;;;;;;;10.50;10.50;;;;;;;;5013367;28;45461;-63
2022/03/15 00:32:13;;;;;;;;;10.25;10.25;;;;;;;;5012784;28;45682;-63
2022/03/15 00:34:38;;;;;;;;;11.00;10.00;;;;;;;;5013936;28;45501;-63
2022/03/15 00:37:04;;;;;;;;;10.00;8.75;;;;;;;;5011180;28;47515;-64
2022/03/15 00:39:29;;;;;;;;;12.50;8.75;;;;;;;;5012047;28;46323;-64
2022/03/15 00:41:54;;;;;;;;;12.00;11.00;;;;;;;;5015069;28;45367;-64
2022/03/15 00:44:20;;;;;;;;;11.25;8.00;;;;;;;;5012277;28;45604;-64
2022/03/15 00:46:45;;;;;;;;;12.75;11.75;;;;;;;;5013496;28;46295;-63
2022/03/15 00:49:10;;;;;;;;;12.25;9.00;;;;;;;;5012388;28;46057;-63
2022/03/15 00:51:36;;;;;;;;;13.50;8.25;;;;;;;;5013177;28;45447;-61
2022/03/15 00:54:01;;;;;;;;;13.25;10.50;;;;;;;;5015299;28;45624;-62
2022/03/15 00:56:27;;;;;;;;;13.00;8.50;;;;;;;;5011871;28;47582;-63
2022/03/15 00:58:52;;;;;;;;;10.00;10.00;;;;;;;;5011862;28;45402;-64
2022/03/15 01:01:17;;;;;;;;;11.25;11.25;;;;;;;;5009506;28;45613;-63
2022/03/15 01:03:42;;;;;;;;;11.75;10.00;;;;;;;;5010155;28;45348;-63
2022/03/15 01:06:09;;;;;;;;;10.50;9.25;;;;;;;;5010565;28;47859;-63
2022/03/15 01:08:34;;;;;;;;;11.50;11.50;;;;;;;;5008604;28;45532;-63
2022/03/15 01:11:00;;;;;;;;;11.50;9.75;;;;;;;;5011673;28;45406;-63
2022/03/15 01:13:25;;;;;;;;;9.50;8.00;;;;;;;;5011718;28;45407;-63
2022/03/15 01:15:50;;;;;;;;;10.00;7.75;;;;;;;;5012568;28;45432;-63
2022/03/15 01:18:16;;;;;;;;;8.00;8.00;;;;;;;;5012400;28;46117;-63
2022/03/15 01:20:43;;;;;;;;;13.25;11.75;;;;;;;;5013769;28;45458;-63
2022/03/15 01:23:08;;;;;;;;;8.50;7.75;;;;;;;;5011331;28;45346;-62
2022/03/15 01:25:34;;;;;;;;;13.50;9.25;;;;;;;;5011424;28;46029;-63
2022/03/15 01:27:59;;;;;;;;;14.00;13.00;;;;;;;;5011239;28;45918;-61
2022/03/15 01:30:25;;;;;;;;;10.50;10.50;;;;;;;;5010655;28;45451;-63
2022/03/15 01:32:50;;;;;;;;;8.25;8.00;;;;;;;;5014126;28;45465;-63
2022/03/15 01:35:15;;;;;;;;;10.50;9.00;;;;;;;;5012528;28;46634;-64
2022/03/15 01:37:40;;;;;;;;;14.00;12.25;;;;;;;;5011107;28;46410;-64
2022/03/15 01:40:06;;;;;;;;;13.50;11.50;;;;;;;;5008899;28;45442;-64
2022/03/15 01:42:31;;;;;;;;;10.50;10.50;;;;;;;;5011821;28;45902;-64
2022/03/15 01:44:56;;;;;;;;;10.50;10.00;;;;;;;;5013616;28;47586;-63
2022/03/15 01:47:22;;;;;;;;;11.25;10.50;;;;;;;;5010425;28;45329;-63
2022/03/15 01:49:47;;;;;;;;;11.50;10.00;;;;;;;;5012997;28;45377;-63
2022/03/15 01:52:15;;;;;;;;;8.50;8.25;;;;;;;;5011604;28;45618;-63
2022/03/15 01:54:41;;;;;;;;;13.25;11.00;;;;;;;;5012771;28;47084;-64
2022/03/15 01:57:07;;;;;;;;;17.00;11.00;;;;;;;;5013829;28;45492;-64
2022/03/15 01:59:33;;;;;;;;;9.00;9.00;;;;;;;;5011101;28;45562;-64
2022/03/15 02:01:58;;;;;;;;;10.00;8.25;;;;;;;;5009842;28;45539;-63
2022/03/15 02:04:24;;;;;;;;;7.50;7.00;;;;;;;;5009146;28;47840;-63
2022/03/15 02:06:50;;;;;;;;;11.75;8.75;;;;;;;;5009851;28;45529;-63
2022/03/15 02:09:15;;;;;;;;;8.00;8.00;;;;;;;;5009956;28;45357;-64
2022/03/15 02:11:45;;;;;;;;;9.50;8.00;;;;;;;;5010872;28;45466;-62
2022/03/15 02:14:10;;;;;;;;;9.75;8.50;;;;;;;;5009437;28;47759;-63
2022/03/15 02:16:36;;;;;;;;;7.50;6.50;;;;;;;;5010104;28;45948;-64
2022/03/15 02:19:02;;;;;;;;;14.25;9.75;;;;;;;;5010329;28;45966;-63
2022/03/15 02:21:27;;;;;;;;;9.75;9.75;;;;;;;;5009124;28;45664;-64
2022/03/15 02:23:53;;;;;;;;;12.75;10.00;;;;;;;;5011568;28;47299;-63
2022/03/15 02:26:18;;;;;;;;;5.00;4.25;;;;;;;;5008067;28;46197;-63
2022/03/15 02:28:44;;;;;;;;;7.75;7.25;;;;;;;;5011700;28;45410;-63
2022/03/15 02:31:09;;;;;;;;;7.25;6.75;;;;;;;;5009647;28;45398;-63
2022/03/15 02:33:34;;;;;;;;;8.00;6.25;;;;;;;;5011890;28;45401;-63
2022/03/15 02:36:00;;;;;;;;;8.25;7.75;;;;;;;;5012643;28;45381;-63
2022/03/15 02:38:25;;;;;;;;;10.25;7.00;;;;;;;;5010042;28;45537;-63
2022/03/15 02:40:50;;;;;;;;;8.25;8.25;;;;;;;;5008543;28;45348;-63
2022/03/15 02:43:15;;;;;;;;;10.75;9.25;;;;;;;;5011217;28;47408;-63
2022/03/15 02:45:41;;;;;;;;;8.00;7.00;;;;;;;;5008728;28;45494;-63
2022/03/15 02:48:06;;;;;;;;;10.00;8.25;;;;;;;;5012820;28;45398;-63
2022/03/15 02:50:31;;;;;;;;;8.00;7.00;;;;;;;;5010119;28;45429;-64
2022/03/15 02:52:57;;;;;;;;;9.00;8.50;;;;;;;;5011516;28;45628;-66
2022/03/15 02:55:24;;;;;;;;;7.25;6.00;;;;;;;;5011479;28;45306;-64
2022/03/15 02:57:50;;;;;;;;;8.25;5.50;;;;;;;;5010065;28;45569;-63
2022/03/15 03:00:15;;;;;;;;;8.00;8.00;;;;;;;;5011188;28;45492;-64
2022/03/15 03:02:41;;;;;;;;;7.00;7.00;;;;;;;;5011564;28;46394;-64
2022/03/15 03:05:06;;;;;;;;;6.25;6.00;;;;;;;;5008191;28;45318;-63
2022/03/15 03:07:34;;;;;;;;;6.25;6.25;;;;;;;;5011301;28;45437;-63
2022/03/15 03:09:59;;;;;;;;;8.00;6.75;;;;;;;;5009968;28;45425;-63
2022/03/15 03:12:24;;;;;;;;;7.00;7.00;;;;;;;;5010034;28;47613;-63
2022/03/15 03:14:50;;;;;;;;;9.50;8.00;;;;;;;;5025572;28;45422;-63
2022/03/15 03:17:15;;;;;;;;;8.75;7.00;;;;;;;;5011171;28;45406;-62
2022/03/15 03:19:42;;;;;;;;;4.00;4.00;;;;;;;;5011329;28;45662;-63
2022/03/15 03:22:07;;;;;;;;;10.50;8.50;;;;;;;;5011262;28;45764;-63
2022/03/15 03:24:34;;;;;;;;;6.50;6.50;;;;;;;;5011016;28;45448;-63
2022/03/15 03:27:00;;;;;;;;;7.25;6.75;;;;;;;;5013359;28;45461;-63
2022/03/15 03:29:26;;;;;;;;;12.75;11.50;;;;;;;;5009514;28;45627;-64
2022/03/15 03:31:51;;;;;;;;;12.00;7.25;;;;;;;;5010787;28;46343;-64
2022/03/15 03:34:16;;;;;;;;;7.75;7.75;;;;;;;;5010725;28;45496;-63
2022/03/15 03:36:41;;;;;;;;;7.00;7.00;;;;;;;;5011274;28;45773;-64
2022/03/15 03:39:07;;;;;;;;;10.50;8.75;;;;;;;;5010613;28;45774;-64
2022/03/15 03:41:32;;;;;;;;;11.50;9.75;;;;;;;;5009545;28;46537;-62
2022/03/15 03:43:58;;;;;;;;;7.00;7.00;;;;;;;;5008702;28;45310;-64
2022/03/15 03:46:23;;;;;;;;;9.75;9.75;;;;;;;;5009863;28;45475;-63
2022/03/15 03:48:50;;;;;;;;;10.25;10.25;;;;;;;;5009951;28;45374;-63
2022/03/15 03:51:15;;;;;;;;;9.25;7.75;;;;;;;;5010636;28;47344;-64
2022/03/15 03:53:40;;;;;;;;;7.00;7.00;;;;;;;;5010785;28;45453;-64
2022/03/15 03:56:05;;;;;;;;;11.25;8.75;;;;;;;;5010122;28;45389;-63
2022/03/15 03:58:31;;;;;;;;;10.50;7.50;;;;;;;;5009990;28;45906;-64
2022/03/15 04:00:56;;;;;;;;;10.75;10.75;;;;;;;;5009134;28;47385;-62
2022/03/15 04:03:22;;;;;;;;;9.75;8.25;;;;;;;;5012516;28;45612;-63
2022/03/15 04:05:49;;;;;;;;;7.00;6.00;;;;;;;;5030677;28;45705;-63
2022/03/15 04:08:16;;;;;;;;;8.50;7.50;;;;;;;;5011163;28;46027;-62
2022/03/15 04:10:41;;;;;;;;;9.25;7.75;;;;;;;;5013076;28;46455;-62
2022/03/15 04:13:07;;;;;;;;;9.50;8.00;;;;;;;;5012388;28;45367;-63
2022/03/15 04:15:33;;;;;;;;;8.50;8.50;;;;;;;;5014207;28;45592;-62
2022/03/15 04:17:58;;;;;;;;;9.50;9.00;;;;;;;;5014643;28;45619;-62
2022/03/15 04:20:23;;;;;;;;;9.25;9.00;;;;;;;;5012297;28;48490;-62
2022/03/15 04:22:49;;;;;;;;;8.50;8.50;;;;;;;;5011730;28;45409;-63
2022/03/15 04:25:14;;;;;;;;;10.50;9.75;;;;;;;;5012616;28;45311;-63
2022/03/15 04:27:39;;;;;;;;;13.75;10.25;;;;;;;;5012915;28;45393;-63
2022/03/15 04:30:05;;;;;;;;;8.25;6.50;;;;;;;;5014548;28;48344;-63
2022/03/15 04:32:31;;;;;;;;;8.50;8.00;;;;;;;;5012281;28;45260;-63
2022/03/15 04:34:56;;;;;;;;;10.00;8.50;;;;;;;;5013124;28;45430;-63
2022/03/15 04:37:23;;;;;;;;;11.25;9.50;;;;;;;;5012405;28;45826;-63
2022/03/15 04:39:48;;;;;;;;;10.00;10.00;;;;;;;;5013613;28;45721;-63
2022/03/15 04:42:14;;;;;;;;;10.75;10.75;;;;;;;;5013129;28;46064;-64
2022/03/15 04:44:39;;;;;;;;;12.50;11.00;;;;;;;;5012707;28;45485;-64
2022/03/15 04:47:04;;;;;;;;;14.50;13.25;;;;;;;;5012472;28;45382;-64
2022/03/15 04:49:30;;;;;;;;;11.50;11.50;;;;;;;;5011816;28;46716;-64
2022/03/15 04:51:55;;;;;;;;;13.00;11.75;;;;;;;;5010382;28;46238;-65
2022/03/15 04:54:20;;;;;;;;;11.75;11.50;;;;;;;;5012301;28;45326;-64
2022/03/15 04:56:45;;;;;;;;;11.75;11.25;;;;;;;;5012135;28;45832;-65
2022/03/15 04:59:11;;;;;;;;;10.25;10.25;;;;;;;;5011393;28;47629;-65
2022/03/15 05:01:36;;;;;;;;;15.00;13.00;;;;;;;;5010020;28;45528;-66
2022/03/15 05:04:01;;;;;;;;;14.25;14.00;;;;;;;;5011548;28;45362;-65
2022/03/15 05:06:26;;;;;;;;;11.50;11.50;;;;;;;;5011910;28;45934;-65
2022/03/15 05:08:52;;;;;;;;;12.50;12.50;;;;;;;;5011570;28;47700;-65
2022/03/15 05:11:18;;;;;;;;;12.00;12.00;;;;;;;;5012925;28;45368;-65
2022/03/15 05:13:45;;;;;;;;;15.50;13.00;;;;;;;;5011740;28;45696;-65
2022/03/15 05:16:14;;;;;;;;;14.75;14.00;;;;;;;;5011504;28;45512;-64
2022/03/15 05:18:40;;;;;;;;;14.00;14.00;;;;;;;;4995371;28;47739;-65
2022/03/15 05:21:07;;;;;;;;;15.50;13.25;;;;;;;;5013241;28;45818;-64
2022/03/15 05:23:32;;;;;;;;;15.75;14.50;;;;;;;;5011397;28;45521;-66
2022/03/15 05:25:58;;;;;;;;;14.00;12.75;;;;;;;;5012756;28;45489;-66
2022/03/15 05:28:24;;;;;;;;;15.25;13.00;;;;;;;;5012705;28;45828;-66
2022/03/15 05:30:49;;;;;;;;;17.00;14.50;;;;;;;;5011764;28;45457;-66
2022/03/15 05:33:15;;;;;;;;;13.00;12.25;;;;;;;;5009442;28;45882;-68
2022/03/15 05:35:40;;;;;;;;;16.50;14.75;;;;;;;;5010354;28;45450;-68
2022/03/15 05:38:05;;;;;;;;;15.25;13.75;;;;;;;;5009475;28;48483;-68
2022/03/15 05:40:31;;;;;;;;;13.25;13.25;;;;;;;;5010646;28;45451;-68
2022/03/15 05:42:56;;;;;;;;;18.50;16.50;;;;;;;;5011075;28;45533;-67
2022/03/15 05:45:22;;;;;;;;;16.00;15.25;;;;;;;;5011211;28;45319;-68
2022/03/15 05:47:48;;;;;;;;;18.50;18.25;;;;;;;;5012518;28;45518;-68
2022/03/15 05:50:14;;;;;;;;;14.50;13.25;;;;;;;;5003938;28;45379;-69
2022/03/15 05:52:39;;;;;;;;;17.00;16.00;;;;;;;;5005120;28;45670;-68
2022/03/15 05:55:05;;;;;;;;;21.75;21.25;;;;;;;;5009815;28;45354;-68
2022/03/15 05:57:30;;;;;;;;;22.00;20.00;;;;;;;;5010740;28;47527;-67
2022/03/15 05:59:55;;;;;;;;;22.25;21.00;;;;;;;;5012368;28;45340;-66
2022/03/15 06:02:21;;;;;;;;;23.50;22.50;;;;;;;;5009938;28;45452;-67
2022/03/15 06:04:47;;;;;;;;;26.00;21.25;;;;;;;;5007530;28;45406;-68
2022/03/15 06:07:12;;;;;;;;;26.00;22.50;;;;;;;;5004021;28;45946;-67
2022/03/15 06:09:37;;;;;;;;;23.25;19.50;;;;;;;;5002176;28;45437;-66
2022/03/15 06:12:03;;;;;;;;;20.50;18.25;;;;;;;;5012174;28;45408;-65
2022/03/15 06:14:28;;;;;;;;;25.00;19.75;;;;;;;;5009742;28;45501;-66
2022/03/15 06:16:54;;;;;;;;;19.50;16.00;;;;;;;;5010335;28;47689;-66
2022/03/15 06:19:19;;;;;;;;;20.50;19.00;;;;;;;;5010387;28;45371;-66
2022/03/15 06:21:44;;;;;;;;;22.00;20.00;;;;;;;;5010009;28;45339;-65
2022/03/15 06:24:10;;;;;;;;;23.25;22.50;;;;;;;;5012546;28;45485;-65
2022/03/15 06:26:36;;;;;;;;;21.00;21.00;;;;;;;;5010567;28;46474;-65
2022/03/15 06:29:03;;;;;;;;;23.25;21.50;;;;;;;;5009961;28;45634;-66
2022/03/15 06:31:29;;;;;;;;;24.75;23.75;;;;;;;;5009059;28;45619;-65
2022/03/15 06:33:54;;;;;;;;;24.00;22.75;;;;;;;;5009533;28;45546;-64
2022/03/15 06:36:20;;;;;;;;;23.75;19.75;;;;;;;;5011084;28;47683;-64
2022/03/15 06:38:45;;;;;;;;;23.25;22.25;;;;;;;;5012720;28;45474;-64
2022/03/15 06:41:14;;;;;;;;;23.00;20.75;;;;;;;;5011832;28;45545;-64
2022/03/15 06:43:40;;;;;;;;;20.75;19.00;;;;;;;;5008575;28;45515;-64
2022/03/15 06:46:06;;;;;;;;;22.50;20.50;;;;;;;;5010616;28;48516;-64
2022/03/15 06:48:31;;;;;;;;;21.00;21.00;;;;;;;;5010063;28;45651;-65
2022/03/15 06:50:56;;;;;;;;;16.25;16.25;;;;;;;;5012973;28;45295;-65
2022/03/15 06:53:22;;;;;;;;;20.25;20.00;;;;;;;;5008563;28;45502;-64
2022/03/15 06:55:47;;;;;;;;;19.75;19.50;;;;;;;;5009883;28;48070;-65
2022/03/15 06:58:12;;;;;;;;;25.00;23.00;;;;;;;;5008842;28;45993;-66
2022/03/15 07:00:37;;;;;;;;;17.25;13.75;;;;;;;;5011629;28;45379;-65
2022/03/15 07:03:03;;;;;;;;;26.50;22.75;;;;;;;;5013389;28;45487;-64
2022/03/15 07:05:28;;;;;;;;;23.50;23.50;;;;;;;;5011180;28;45550;-65
2022/03/15 07:07:53;;;;;;;;;20.50;20.50;;;;;;;;5011358;28;45864;-65
2022/03/15 07:10:20;;;;;;;;;23.75;22.25;;;;;;;;5009995;28;45315;-65
2022/03/15 07:12:46;;;;;;;;;26.50;21.50;;;;;;;;5010317;28;45421;-64
2022/03/15 07:15:11;;;;;;;;;22.00;16.25;;;;;;;;5011847;28;47168;-65
2022/03/15 07:17:37;;;;;;;;;25.50;21.25;;;;;;;;5010338;28;45714;-64
2022/03/15 07:20:02;;;;;;;;;23.75;20.75;;;;;;;;5011432;28;45415;-64
2022/03/15 07:22:28;;;;;;;;;23.00;21.25;;;;;;;;5009791;28;45331;-64
2022/03/15 07:24:53;;;;;;;;;24.25;22.25;;;;;;;;5009856;28;46320;-64
2022/03/15 07:27:18;;;;;;;;;20.75;19.50;;;;;;;;5012150;28;45478;-65
2022/03/15 07:29:44;;;;;;;;;26.50;25.50;;;;;;;;5010724;28;45410;-64
2022/03/15 07:32:09;;;;;;;;;26.75;25.75;;;;;;;;5010144;28;45397;-65
2022/03/15 07:34:35;;;;;;;;;27.00;25.75;;;;;;;;5009574;28;48227;-64
2022/03/15 07:37:00;;;;;;;;;28.25;27.75;;;;;;;;5009736;28;45470;-64
2022/03/15 07:39:25;;;;;;;;;27.50;25.25;;;;;;;;5014117;28;45397;-63
2022/03/15 07:41:51;;;;;;;;;22.50;22.50;;;;;;;;5016373;28;45501;-64
2022/03/15 07:44:16;;;;;;;;;26.50;24.00;;;;;;;;5014133;28;46268;-63
2022/03/15 07:46:48;;;;;;;;;24.75;23.75;;;;;;;;5012518;28;46287;-63
2022/03/15 07:49:13;;;;;;;;;26.75;20.75;;;;;;;;5012859;28;45505;-64
2022/03/15 07:51:38;;;;;;;;;26.50;26.00;;;;;;;;5014204;28;45397;-64
2022/03/15 07:54:04;;;;;;;;;25.25;25.25;;;;;;;;5016112;28;45521;-63
2022/03/15 07:56:29;;;;;;;;;27.50;24.75;;;;;;;;5012728;28;46018;-63
2022/03/15 07:58:54;;;;;;;;;27.75;27.75;;;;;;;;5012814;28;45375;-66
2022/03/15 08:01:19;;;;;;;;;24.25;24.25;;;;;;;;5014057;28;45454;-63
2022/03/15 08:03:45;;;;;;;;;22.50;19.25;;;;;;;;5014059;28;45838;-63
2022/03/15 08:06:10;;;;;;;;;23.50;23.00;;;;;;;;5014657;28;45492;-64
2022/03/15 08:08:35;;;;;;;;;28.25;27.00;;;;;;;;5014165;28;45525;-63
2022/03/15 08:11:06;;;;;;;;;27.50;25.00;;;;;;;;5012466;28;45396;-64
2022/03/15 08:13:31;;;;;;;;;28.75;26.25;;;;;;;;5013719;28;47359;-64
2022/03/15 08:15:56;;;;;;;;;28.50;26.00;;;;;;;;5011092;28;45504;-66
2022/03/15 08:18:22;;;;;;;;;29.50;27.25;;;;;;;;5013128;28;45350;-64
2022/03/15 08:20:48;;;;;;;;;29.25;29.25;;;;;;;;5013940;28;45592;-64
2022/03/15 08:23:13;;;;;;;;;28.00;26.75;;;;;;;;5012091;28;48638;-64
2022/03/15 08:25:38;;;;;;;;;34.75;29.00;;;;;;;;5013535;28;45615;-64
2022/03/15 08:28:04;;;;;;;;;31.75;28.00;;;;;;;;5014761;28;45493;-64
2022/03/15 08:30:29;;;;;;;;;28.00;28.00;;;;;;;;5014053;28;45460;-64
2022/03/15 08:32:55;;;;;;;;;31.50;26.50;;;;;;;;5014161;28;47713;-64
2022/03/15 08:35:21;;;;;;;;;24.25;24.25;;;;;;;;5013743;28;45432;-65
2022/03/15 08:37:55;;;;;;;;;28.50;24.50;;;;;;;;5012378;28;45493;-64
2022/03/15 08:40:22;;;;;;;;;25.25;24.00;;;;;;;;5014053;28;45357;-64
2022/03/15 08:42:48;;;;;;;;;23.50;23.00;;;;;;;;5012064;28;46907;-64
2022/03/15 08:45:13;;;;;;;;;30.75;29.25;;;;;;;;5013973;28;46214;-64
2022/03/15 08:47:38;;;;;;;;;30.25;26.00;;;;;;;;5014030;28;45287;-64
2022/03/15 08:50:05;;;;;;;;;30.25;28.00;;;;;;;;5011744;28;45483;-63
2022/03/15 08:52:31;;;;;;;;;32.75;29.00;;;;;;;;5012038;28;47595;-64
2022/03/15 08:54:56;;;;;;;;;30.25;28.50;;;;;;;;5013271;28;45359;-65
2022/03/15 08:57:21;;;;;;;;;33.50;31.75;;;;;;;;5012861;28;45409;-65
2022/03/15 08:59:46;;;;;;;;;29.25;27.50;;;;;;;;5014449;28;45514;-64
2022/03/15 09:02:12;;;;;;;;;40.00;32.75;;;;;;;;5011737;28;48304;-64
2022/03/15 09:04:37;;;;;;;;;26.50;25.75;;;;;;;;5013076;28;45443;-66
2022/03/15 09:07:03;;;;;;;;;26.25;22.75;;;;;;;;5013627;28;45514;-64
2022/03/15 09:09:28;;;;;;;;;29.50;27.00;;;;;;;;5013365;28;45344;-64
2022/03/15 09:11:53;;;;;;;;;37.75;33.00;;;;;;;;5013693;28;47682;-65
2022/03/15 09:14:18;;;;;;;;;35.25;32.75;;;;;;;;5011481;28;45615;-65
2022/03/15 09:16:44;;;;;;;;;30.75;27.25;;;;;;;;5011838;28;45511;-64
2022/03/15 09:19:10;;;;;;;;;33.00;32.75;;;;;;;;5012286;28;45476;-64
2022/03/15 09:21:35;;;;;;;;;40.50;31.50;;;;;;;;5011642;28;47486;-64
2022/03/15 09:24:00;;;;;;;;;38.00;32.50;;;;;;;;5015594;28;45486;-63
2022/03/15 09:26:26;;;;;;;;;31.25;31.00;;;;;;;;5013918;28;45509;-63
2022/03/15 09:28:51;;;;;;;;;33.25;32.50;;;;;;;;5011331;28;49704;-63
2022/03/15 09:31:17;;;;;;;;;37.25;33.00;;;;;;;;5010440;28;47933;-63
2022/03/15 09:33:43;;;;;;;;;35.50;33.75;;;;;;;;5009993;28;45597;-66
2022/03/15 09:36:08;;;;;;;;;37.75;32.25;;;;;;;;5013628;28;45451;-65
2022/03/15 09:38:34;;;;;;;;;40.50;33.50;;;;;;;;5011564;28;45682;-63
2022/03/15 09:41:02;;;;;;;;;40.00;35.00;;;;;;;;5012465;28;45832;-63
2022/03/15 09:43:31;;;;;;;;;32.50;32.00;;;;;;;;5011343;28;46418;-63
2022/03/15 09:46:00;;;;;;;;;35.50;34.50;;;;;;;;5012907;28;45442;-64
2022/03/15 09:48:25;;;;;;;;;44.50;38.50;;;;;;;;5011842;28;45303;-63
2022/03/15 09:50:51;;;;;;;;;40.00;35.00;;;;;;;;5012967;28;47486;-65
2022/03/15 09:53:17;;;;;;;;;40.00;36.25;;;;;;;;5012533;28;45769;-66
2022/03/15 09:55:45;;;;;;;;;38.50;34.25;;;;;;;;5011134;28;45560;-65
2022/03/15 09:58:11;;;;;;;;;42.75;36.25;;;;;;;;5009946;28;45652;-65
2022/03/15 10:00:37;;;;;;;;;39.50;35.50;;;;;;;;5011447;28;46459;-66
2022/03/15 10:03:02;;;;;;;;;40.25;35.25;;;;;;;;5014363;28;45433;-65
2022/03/15 10:05:28;;;;;;;;;34.25;28.00;;;;;;;;5012318;28;45568;-64
2022/03/15 10:07:53;;;;;;;;;32.25;31.25;;;;;;;;5012269;28;45615;-65
2022/03/15 10:10:18;;;;;;;;;30.75;30.75;;;;;;;;5010755;28;47820;-67
2022/03/15 10:12:43;;;;;;;;;36.75;34.75;;;;;;;;5010998;28;46143;-65
2022/03/15 10:15:16;;;;;;;;;36.25;31.75;;;;;;;;5013056;28;45271;-65
2022/03/15 10:17:49;;;;;;;;;38.25;32.25;;;;;;;;5011293;28;45812;-66
2022/03/15 10:20:16;;;;;;;;;31.25;29.75;;;;;;;;5011927;28;45905;-65
2022/03/15 10:23:02;;;;;;;;;31.50;31.25;;;;;;;;5010496;28;45513;-65
2022/03/15 10:25:29;;;;;;;;;35.75;32.00;;;;;;;;5011539;28;45613;-66
2022/03/15 10:27:59;;;;;;;;;33.25;32.75;;;;;;;;5012224;28;45457;-65
2022/03/15 10:30:25;;;;;;;;;37.25;33.75;;;;;;;;5012396;28;45589;-66
2022/03/15 10:32:51;;;;;;;;;37.75;34.50;;;;;;;;5012317;28;45502;-66
2022/03/15 10:35:21;;;;;;;;;38.00;34.25;;;;;;;;5010562;28;45959;-66
2022/03/15 10:37:46;;;;;;;;;34.25;32.75;;;;;;;;5010459;28;45544;-67
2022/03/15 10:40:12;;;;;;;;;37.75;32.25;;;;;;;;5011820;28;46332;-67
2022/03/15 10:42:38;;;;;;;;;41.00;34.50;;;;;;;;5010565;28;45521;-67
2022/03/15 10:45:13;;;;;;;;;38.75;33.00;;;;;;;;5013982;28;45727;-68
2022/03/15 10:47:46;;;;;;;;;35.75;31.75;;;;;;;;5009596;28;45803;-67
2022/03/15 10:50:12;;;;;;;;;35.50;33.50;;;;;;;;5010260;28;48686;-68
2022/03/15 10:52:40;;;;;;;;;38.50;33.50;;;;;;;;5010248;28;45472;-67
2022/03/15 10:55:11;;;;;;;;;36.50;34.00;;;;;;;;5010620;28;45545;-67
2022/03/15 10:57:53;;;;;;;;;43.50;34.50;;;;;;;;5010284;28;45428;-68
2022/03/15 11:00:29;;;;;;;;;36.75;33.25;;;;;;;;5010089;28;46409;-69
2022/03/15 11:02:55;;;;;;;;;36.75;34.75;;;;;;;;5026767;28;45641;-68
2022/03/15 11:05:30;;;;;;;;;42.00;33.00;;;;;;;;5009989;28;45417;-67
2022/03/15 11:07:56;;;;;;;;;33.75;33.00;;;;;;;;5011486;28;45450;-68
2022/03/15 11:10:22;;;;;;;;;33.25;31.50;;;;;;;;5009777;28;46548;-68
2022/03/15 11:12:58;;;;;;;;;41.50;34.50;;;;;;;;5007652;28;45390;-68
2022/03/15 11:15:28;;;;;;;;;38.25;34.50;;;;;;;;5013611;28;46017;-68
2022/03/15 11:17:55;;;;;;;;;39.75;35.50;;;;;;;;5027108;28;45623;-69
2022/03/15 11:20:20;;;;;;;;;39.75;35.00;;;;;;;;5022511;28;46610;-68
2022/03/15 11:22:46;;;;;;;;;36.50;35.00;;;;;;;;5021172;28;45478;-68
2022/03/15 11:25:14;;;;;;;;;35.75;31.25;;;;;;;;5021095;28;45457;-67
2022/03/15 11:27:41;;;;;;;;;35.25;34.25;;;;;;;;5024227;28;45425;-69
2022/03/15 11:30:07;;;;;;;;;39.00;34.00;;;;;;;;5028781;28;48453;-68
2022/03/15 11:32:34;;;;;;;;;40.00;34.50;;;;;;;;5021303;28;45391;-69
2022/03/15 11:34:59;;;;;;;;;34.25;30.75;;;;;;;;5022330;28;45499;-70
2022/03/15 11:37:25;;;;;;;;;40.00;34.75;;;;;;;;5021036;28;45849;-69
2022/03/15 11:39:52;;;;;;;;;35.50;34.25;;;;;;;;5022606;28;46560;-70
2022/03/15 11:42:18;;;;;;;;;38.00;32.75;;;;;;;;5027687;28;46078;-69
2022/03/15 11:45:04;;;;;;;;;39.50;34.50;;;;;;;;5023121;28;45593;-70
2022/03/15 11:47:33;;;;;;;;;34.25;32.50;;;;;;;;5020399;28;45595;-68
2022/03/15 11:50:06;;;;;;;;;34.75;32.50;;;;;;;;5022161;28;45737;-68
2022/03/15 11:52:37;;;;;;;;;32.75;31.75;;;;;;;;5024669;28;45737;-69
2022/03/15 11:55:12;;;;;;;;;32.25;28.50;;;;;;;;5022271;28;45466;-68
2022/03/15 11:57:41;;;;;;;;;30.50;29.75;;;;;;;;5023938;28;45632;-68
2022/03/15 12:00:07;;;;;;;;;34.75;29.25;;;;;;;;5038539;28;47678;-69
2022/03/15 12:02:39;;;;;;;;;34.25;32.00;;;;;;;;5022128;28;45390;-69
2022/03/15 12:05:17;;;;;;;;;32.00;30.25;;;;;;;;5022254;28;45856;-69
2022/03/15 12:07:45;;;;;;;;;32.75;28.25;;;;;;;;5023505;28;45631;-70
2022/03/15 12:10:10;;;;;;;;;35.50;31.50;;;;;;;;5021129;28;46759;-69
2022/03/15 12:12:35;;;;;;;;;37.25;33.25;;;;;;;;5024342;28;45626;-70
2022/03/15 12:15:10;;;;;;;;;33.50;31.75;;;;;;;;5026791;28;45639;-70
2022/03/15 12:17:38;;;;;;;;;38.50;33.50;;;;;;;;5015810;28;46796;-70
2022/03/15 12:20:14;;;;;;;;;30.75;29.50;;;;;;;;5017791;28;48939;-68
2022/03/15 12:22:40;;;;;;;;;31.25;28.75;;;;;;;;5023343;28;45781;-67
2022/03/15 12:25:05;;;;;;;;;39.25;34.50;;;;;;;;5026095;28;45563;-68
2022/03/15 12:27:37;;;;;;;;;35.50;34.00;;;;;;;;5027769;28;45447;-67
2022/03/15 12:30:05;;;;;;;;;36.50;33.50;;;;;;;;5031078;28;48546;-67
2022/03/15 12:32:30;;;;;;;;;37.00;33.75;;;;;;;;5011047;28;45571;-68
2022/03/15 12:34:57;;;;;;;;;25.25;24.25;;;;;;;;5009982;28;45533;-68
2022/03/15 12:37:36;;;;;;;;;25.75;23.00;;;;;;;;5011533;28;45443;-67
2022/03/15 12:40:03;;;;;;;;;23.00;21.75;;;;;;;;5009893;28;48928;-66
2022/03/15 12:42:29;;;;;;;;;25.50;24.50;;;;;;;;5011539;28;45773;-67
2022/03/15 12:45:10;;;;;;;;;34.25;32.75;;;;;;;;5013612;28;45638;-67
2022/03/15 12:47:40;;;;;;;;;29.50;27.00;;;;;;;;5011391;28;45936;-67
2022/03/15 12:50:05;;;;;;;;;32.25;30.25;;;;;;;;5009619;28;46585;-67
2022/03/15 12:52:57;;;;;;;;;29.00;29.00;;;;;;;;5009874;28;45397;-67
2022/03/15 12:55:24;;;;;;;;;27.25;26.25;;;;;;;;5029494;28;45513;-67
2022/03/15 12:58:03;;;;;;;;;24.50;24.25;;;;;;;;5012815;28;45430;-68
2022/03/15 13:00:31;;;;;;;;;27.00;25.50;;;;;;;;5029390;28;48483;-69
2022/03/15 13:02:56;;;;;;;;;28.75;26.00;;;;;;;;5013568;28;45450;-66
2022/03/15 13:05:22;;;;;;;;;25.50;25.50;;;;;;;;5029497;28;45856;-66
2022/03/15 13:07:48;;;;;;;;;27.50;26.50;;;;;;;;5011796;28;47271;-65
2022/03/15 13:10:14;;;;;;;;;26.25;25.25;;;;;;;;5011972;28;48606;-66
2022/03/15 13:12:43;;;;;;;;;28.75;28.75;;;;;;;;5012571;28;46228;-66
2022/03/15 13:15:09;;;;;;;;;28.00;24.00;;;;;;;;5030328;28;45428;-67
2022/03/15 13:17:34;;;;;;;;;25.75;25.50;;;;;;;;5011044;28;45430;-66
2022/03/15 13:20:00;;;;;;;;;23.50;23.50;;;;;;;;5029206;28;45690;-66
2022/03/15 13:22:30;;;;;;;;;28.00;25.25;;;;;;;;5029142;28;45515;-66
2022/03/15 13:24:56;;;;;;;;;25.50;22.75;;;;;;;;5011022;28;45629;-66
2022/03/15 13:27:22;;;;;;;;;28.25;26.75;;;;;;;;5012396;28;45565;-66
2022/03/15 13:29:47;;;;;;;;;28.75;25.00;;;;;;;;5029349;28;47728;-66
2022/03/15 13:32:15;;;;;;;;;30.50;28.50;;;;;;;;5008404;28;45557;-66
2022/03/15 13:34:41;;;;;;;;;28.25;26.00;;;;;;;;5009064;28;45725;-65
2022/03/15 13:37:07;;;;;;;;;29.75;28.50;;;;;;;;5010549;28;45395;-66
2022/03/15 13:39:34;;;;;;;;;25.50;23.00;;;;;;;;5010646;28;46742;-66
2022/03/15 13:42:01;;;;;;;;;31.00;29.75;;;;;;;;5010892;28;45497;-66
2022/03/15 13:44:27;;;;;;;;;29.75;28.25;;;;;;;;5009136;28;45371;-66
2022/03/15 13:47:03;;;;;;;;;28.50;25.00;;;;;;;;5010385;28;45938;-67
2022/03/15 13:49:28;;;;;;;;;29.25;28.25;;;;;;;;5008714;28;48524;-66
2022/03/15 13:52:23;;;;;;;;;28.00;27.25;;;;;;;;5008611;28;46081;-66
2022/03/15 13:55:04;;;;;;;;;32.25;31.00;;;;;;;;5010035;28;45705;-66
2022/03/15 13:57:31;;;;;;;;;19.00;17.25;;;;;;;;5010529;28;45510;-67
2022/03/15 13:59:58;;;;;;;;;17.50;16.75;;;;;;;;5010751;28;47730;-67
2022/03/15 14:02:24;;;;;;;;;19.50;19.50;;;;;;;;5010156;28;45600;-66
2022/03/15 14:04:58;;;;;;;;;19.25;19.25;;;;;;;;5010230;28;45580;-66
2022/03/15 14:07:23;;;;;;;;;18.25;16.00;;;;;;;;5008930;28;45652;-66
2022/03/15 14:09:56;;;;;;;;;18.75;16.75;;;;;;;;5010091;28;46452;-66
2022/03/15 14:12:23;;;;;;;;;13.75;12.75;;;;;;;;5009868;28;46403;-67
2022/03/15 14:14:53;;;;;;;;;15.00;15.00;;;;;;;;5010061;28;45480;-67
2022/03/15 14:17:26;;;;;;;;;18.75;18.50;;;;;;;;5010133;28;45541;-66